首页
METAR-TAF:

METAR-TAF

机场 :

拉瓜地亞機場

纽约 / 拉瓜地亞, 紐約州, 美国

纬度: 40-46-45N, 经度: 073-52-48W, 海拔: 6米

当前天气观测

该预报发布于6分钟前的15:26 UTC
风速7节,风向
温度 24°C
湿度 78%
气压 1013 hPa
能見度: 11.3公里
散云层高于1200英尺
多云层高于5500英尺
阴天层高于7000英尺

METAR: KLGA 181526Z 17007KT 7SM SCT012 BKN055 OVC070 24/20 A2992 RMK AO2 T02390200

时间: 11:32 (15:32 UTC)

预报

该预报发布于1小时和15分钟前的14:17 UTC
预报有效从18日的 14点(UTC)到 19日的 18点(UTC)
风速5节,风向南转南东
能見度: 9.7公里
散云层高于500英尺
多云层高于1000英尺
阴天层高于9000英尺
轻雾
短暂存在
从 18日的 14点(UTC)到 18日的 15点(UTC)
能見度: 4.8公里
小阵雨, 轻雾
从 18日的 1600点(UTC)
风速6节,风向东北
能見度: 6.4公里
多云层高于1200英尺, 积雨云.
阴天层高于4000英尺
小阵雨, 附近有雷暴
从 18日的 2100点(UTC)
风速5节,风向东转东北
能見度: 4.8公里
多云层高于2000英尺, 积雨云.
阴天层高于4000英尺
小阵雨, 附近有雷暴
从 18日的 2300点(UTC)
风速8节,风向北转东北
能見度: 4.8公里
多云层高于2500英尺
轻雾
从 19日的 0200点(UTC)
风速5节,风向东北
能見度: 10公里
多云层高于2000英尺
阴天层高于3500英尺
附近有阵雨

TAF: KLGA 181417Z 1814/1918 15005KT 6SM BR SCT005 BKN010 OVC090 TEMPO 1814/1815 3SM -SHRA BR FM181600 04006KT 4SM -SHRA VCTS BKN012CB OVC040 FM182100 07005KT 3SM -SHRA VCTS BKN020CB OVC040 FM182300 03008KT 3SM BR BKN025 FM190200 04005KT P6SM VCSH BKN020 OVC035

超过4000个机场的气象观测和天气预报(METAR&TAF报告)。

可查询的气象台以黄色和红色小点在地图上表示。

将鼠标移到小点上方,可查看气象台名称。

然后点击查看天气观测和预报。

如需切换地图:点击带黑十字的绿色按钮放大地图;点击带横线的绿色按钮缩小地图;或者点击绿色箭头查看邻近地区的地图。


METAR-TAF: